Terminal Aerodrome Forecast
Issued by NWS Lake Charles, LA

Home | Current Version | Previous Version | Text Only | Print | Product List | Glossary On
Versions: 1 2 3 4 5 6 7 8 9 10 11 12 13 14 15
912
FTUS44 KLCH 291131
TAFBPT
TAF
KBPT 291131Z 2912/3012 VRB04KT P6SM BKN250
     FM291500 24005KT P6SM BKN050
     FM291800 19004KT P6SM VCTS BKN050CB BKN250
     FM300000 18004KT P6SM SKC=

USA.gov is the U.S. government's official web portal to all federal, state and local government web resources and services.